Time;durP1;ratioP1;P1;durP2;ratioP2;P2;SDS_P1;SDS_P2;PMS_P1;PMS_P2;Temp;Humidity;BMP_temperature;BMP_pressure;BME280_temperature;BME280_humidity;BME280_pressure;Samples;Min_cycle;Max_cycle;Signal;HPM_P1;HPM_P2
2022/08/11 00:02:00;;;;;;;1.50;0.90;;;24.70;60.40;;;;;;4508236;31;20246;-69
2022/08/11 00:04:33;;;;;;;1.52;1.08;;;24.70;60.30;;;;;;4508819;31;20072;-68
2022/08/11 00:07:02;;;;;;;1.25;0.75;;;24.70;60.40;;;;;;4508482;31;20379;-68
2022/08/11 00:09:36;;;;;;;1.52;0.88;;;24.60;60.30;;;;;;4508084;31;20418;-68
2022/08/11 00:12:03;;;;;;;1.95;0.85;;;24.60;60.30;;;;;;4508031;31;20068;-69
2022/08/11 00:14:31;;;;;;;1.35;0.90;;;24.60;60.30;;;;;;4507867;31;20218;-68
2022/08/11 00:17:02;;;;;;;1.80;0.80;;;24.60;60.30;;;;;;4507633;31;20092;-68
2022/08/11 00:19:31;;;;;;;2.22;1.00;;;24.60;60.40;;;;;;4508317;31;20177;-68
2022/08/11 00:21:58;;;;;;;1.60;0.88;;;24.60;60.40;;;;;;4507921;31;20527;-68
2022/08/11 00:24:30;;;;;;;1.40;0.80;;;24.70;60.50;;;;;;4507946;31;20076;-67
2022/08/11 00:26:57;;;;;;;3.08;0.98;;;24.60;60.40;;;;;;4508127;31;20073;-68
2022/08/11 00:29:22;;;;;;;1.27;0.82;;;24.60;60.40;;;;;;4507855;31;20095;-69
2022/08/11 00:31:53;;;;;;;1.63;0.75;;;24.60;60.40;;;;;;4507351;31;20518;-69
2022/08/11 00:34:27;;;;;;;1.98;0.98;;;24.60;60.40;;;;;;4507485;31;20084;-68
2022/08/11 00:36:57;;;;;;;2.17;0.95;;;24.60;61.30;;;;;;4507906;31;20520;-69
2022/08/11 00:39:25;;;;;;;2.08;0.98;;;24.60;60.40;;;;;;4507836;31;20510;-69
2022/08/11 00:42:09;;;;;;;1.10;0.80;;;24.60;60.40;;;;;;4507625;31;20250;-69
2022/08/11 00:44:44;;;;;;;1.65;0.82;;;24.60;60.30;;;;;;4507526;31;20120;-69
2022/08/11 00:47:29;;;;;;;1.35;0.93;;;24.60;60.40;;;;;;4507338;31;20095;-71
2022/08/11 00:50:07;;;;;;;1.70;0.88;;;24.60;60.40;;;;;;4508023;31;20077;-69
2022/08/11 00:52:39;;;;;;;2.08;0.90;;;24.60;60.30;;;;;;4507578;31;20153;-69
2022/08/11 00:55:23;;;;;;;1.70;0.95;;;24.60;60.40;;;;;;4510982;31;20090;-70
2022/08/11 00:58:17;;;;;;;1.63;0.70;;;24.60;60.30;;;;;;4510660;31;20223;-69
2022/08/11 01:01:15;;;;;;;1.83;0.90;;;24.60;60.30;;;;;;4510946;31;20625;-69
2022/08/11 01:04:02;;;;;;;0.73;0.70;;;24.60;60.30;;;;;;4489899;31;20146;-69
2022/08/11 01:06:59;;;;;;;1.05;0.73;;;24.60;60.30;;;;;;4510942;31;20089;-69
2022/08/11 01:09:34;;;;;;;1.05;0.70;;;24.60;60.20;;;;;;4510962;31;20076;-69
2022/08/11 01:12:28;;;;;;;1.13;0.90;;;24.60;60.30;;;;;;4510855;31;20127;-69
2022/08/11 01:15:06;;;;;;;0.93;0.70;;;24.60;60.30;;;;;;4510628;31;20096;-69
2022/08/11 01:18:16;;;;;;;1.60;0.82;;;24.50;60.20;;;;;;4510432;31;20502;-69
2022/08/11 01:20:44;;;;;;;1.38;0.80;;;24.50;60.20;;;;;;4510425;31;20175;-69
2022/08/11 01:23:29;;;;;;;1.48;1.00;;;24.50;60.20;;;;;;4510482;31;20073;-69
2022/08/11 01:26:26;;;;;;;1.45;0.70;;;24.50;60.10;;;;;;4510474;31;20096;-69
2022/08/11 01:29:10;;;;;;;3.42;0.90;;;24.50;60.10;;;;;;4510457;31;20095;-69
2022/08/11 01:32:03;;;;;;;1.05;0.75;;;24.50;60.10;;;;;;4510278;31;20503;-69
2022/08/11 01:35:06;;;;;;;1.50;0.80;;;24.50;60.10;;;;;;4510151;31;20281;-69
2022/08/11 01:38:25;;;;;;;1.20;0.73;;;24.50;60.10;;;;;;4510332;31;20410;-69
2022/08/11 01:41:04;;;;;;;1.55;0.75;;;24.40;60.10;;;;;;4510308;31;20165;-69
2022/08/11 01:50:24;;;;;;;2.50;0.90;;;24.40;60.10;;;;;;4510242;31;20487;-70
2022/08/11 01:53:06;;;;;;;1.10;0.57;;;24.40;60.20;;;;;;4510131;31;20069;-69
2022/08/11 01:56:04;;;;;;;1.63;0.70;;;24.50;60.20;;;;;;4495866;31;20517;-69
2022/08/11 01:58:48;;;;;;;0.85;0.73;;;24.40;60.10;;;;;;4510316;31;20073;-73
2022/08/11 02:01:37;;;;;;;1.52;0.68;;;24.40;60.10;;;;;;4510054;31;20076;-69
2022/08/11 02:04:03;;;;;;;0.90;0.70;;;24.40;60.10;;;;;;4509524;31;20072;-68
2022/08/11 02:06:53;;;;;;;0.70;0.70;;;24.40;60.10;;;;;;4509845;31;20522;-69
2022/08/11 02:09:27;;;;;;;0.98;0.60;;;24.40;60.10;;;;;;4509968;31;20077;-68
2022/08/11 02:12:00;;;;;;;1.25;0.60;;;24.40;60.10;;;;;;4509429;31;20077;-68
2022/08/11 02:15:13;;;;;;;0.75;0.70;;;24.40;61.00;;;;;;4509954;31;20490;-68
2022/08/11 02:17:45;;;;;;;1.25;0.70;;;24.40;60.00;;;;;;4460532;32;20133;-69
2022/08/11 02:23:52;;;;;;;2.17;0.90;;;24.40;60.10;;;;;;4456349;32;20078;-69
2022/08/11 02:26:23;;;;;;;1.77;0.80;;;24.40;60.00;;;;;;4509143;31;20161;-69
2022/08/11 02:29:09;;;;;;;1.35;0.70;;;24.40;60.10;;;;;;4509936;31;20073;-69
2022/08/11 02:34:44;;;;;;;1.08;0.63;;;24.40;60.00;;;;;;4509195;31;20076;-69
2022/08/11 02:37:23;;;;;;;1.17;0.70;;;24.40;60.00;;;;;;4509305;31;20084;-69
2022/08/11 02:40:14;;;;;;;1.08;0.60;;;24.40;60.10;;;;;;4509783;31;20135;-69
2022/08/11 02:43:01;;;;;;;1.00;0.63;;;24.30;60.00;;;;;;4509201;31;20587;-68
2022/08/11 02:45:55;;;;;;;1.15;0.63;;;24.40;60.00;;;;;;4509221;31;20223;-69
2022/08/11 02:51:31;;;;;;;0.80;0.60;;;24.30;60.00;;;;;;4509234;31;20158;-69
2022/08/11 02:54:10;;;;;;;0.88;0.70;;;24.30;60.00;;;;;;4509304;31;20510;-69
2022/08/11 02:56:44;;;;;;;0.70;0.60;;;24.30;60.00;;;;;;4509436;31;20110;-69
2022/08/11 03:02:30;;;;;;;1.05;0.63;;;24.30;60.00;;;;;;4509055;31;20488;-68
2022/08/11 03:05:13;;;;;;;0.57;0.50;;;24.30;60.00;;;;;;4508865;31;20065;-69
2022/08/11 03:07:39;;;;;;;1.10;1.00;;;24.30;60.00;;;;;;4509029;31;20521;-69
2022/08/11 03:10:19;;;;;;;0.70;0.57;;;24.30;60.90;;;;;;4508645;31;20061;-69
2022/08/11 03:16:52;;;;;;;1.15;0.63;;;24.30;59.90;;;;;;4508585;31;20522;-69
2022/08/11 03:19:38;;;;;;;1.15;0.60;;;24.30;59.90;;;;;;4497284;31;20143;-69
2022/08/11 03:22:31;;;;;;;1.02;0.60;;;24.30;60.00;;;;;;4508955;31;20097;-69
2022/08/11 03:25:14;;;;;;;1.50;0.80;;;24.30;60.00;;;;;;4509108;31;20072;-69
2022/08/11 03:27:52;;;;;;;1.52;0.70;;;24.20;59.90;;;;;;4509264;31;20101;-69
2022/08/11 03:30:41;;;;;;;1.38;0.60;;;24.30;60.00;;;;;;4508928;31;20077;-69
2022/08/11 03:36:56;;;;;;;1.00;0.60;;;24.30;60.00;;;;;;4508830;31;20522;-69
2022/08/11 03:39:47;;;;;;;1.33;0.63;;;24.20;59.90;;;;;;4508829;31;20097;-69
2022/08/11 03:42:34;;;;;;;1.23;0.85;;;24.20;59.90;;;;;;4508354;31;20091;-69
2022/08/11 03:45:14;;;;;;;0.70;0.60;;;24.20;59.90;;;;;;4508479;31;20270;-69
2022/08/11 03:47:49;;;;;;;0.70;0.60;;;24.20;59.90;;;;;;4508462;31;20069;-69
2022/08/11 03:50:43;;;;;;;0.55;0.50;;;24.20;59.90;;;;;;4508721;31;20087;-68
2022/08/11 03:53:29;;;;;;;1.08;0.60;;;24.20;59.90;;;;;;4508091;31;20076;-69
2022/08/11 03:56:10;;;;;;;1.15;0.55;;;24.20;59.90;;;;;;4508660;31;20057;-68
2022/08/11 03:58:53;;;;;;;0.70;0.57;;;24.20;59.90;;;;;;4508513;31;20095;-69
2022/08/11 04:01:50;;;;;;;0.70;0.60;;;24.20;59.90;;;;;;4508627;31;20068;-68
2022/08/11 04:04:37;;;;;;;1.20;0.50;;;24.20;59.90;;;;;;4508239;31;20161;-69
2022/08/11 04:07:36;;;;;;;0.50;0.50;;;24.20;59.90;;;;;;4508464;31;20084;-68
2022/08/11 04:10:35;;;;;;;0.65;0.60;;;24.20;60.00;;;;;;4493899;31;20127;-69
2022/08/11 04:13:39;;;;;;;0.68;0.60;;;24.20;59.90;;;;;;4508081;31;20623;-69
2022/08/11 04:16:05;;;;;;;0.85;0.65;;;24.20;59.90;;;;;;4508056;31;20530;-71
2022/08/11 04:18:50;;;;;;;1.33;0.70;;;24.20;60.00;;;;;;4493564;31;20348;-68
2022/08/11 04:21:40;;;;;;;0.95;0.60;;;24.20;59.90;;;;;;4507901;31;20092;-69
2022/08/11 04:24:30;;;;;;;0.85;0.65;;;24.20;59.90;;;;;;4507978;31;20161;-69
2022/08/11 04:27:17;;;;;;;1.05;0.60;;;24.20;59.90;;;;;;4507888;31;20514;-69
2022/08/11 04:29:57;;;;;;;0.98;0.50;;;24.10;59.90;;;;;;4508236;31;20072;-69
2022/08/11 04:32:48;;;;;;;0.98;0.60;;;24.20;59.90;;;;;;4507828;31;20092;-69
2022/08/11 04:35:14;;;;;;;0.93;0.60;;;24.20;59.90;;;;;;4507553;31;20186;-68
2022/08/11 04:38:01;;;;;;;1.08;0.57;;;24.10;59.80;;;;;;4507780;31;20096;-69
2022/08/11 04:40:55;;;;;;;0.70;0.60;;;24.20;59.80;;;;;;4507660;31;20073;-69
2022/08/11 04:43:39;;;;;;;;;;;24.20;59.90;;;;;;4508252;31;20076;-68
2022/08/11 04:47:00;;;;;;;1.10;0.55;;;24.10;59.80;;;;;;4507758;31;19992;-69
2022/08/11 05:02:08;;;;;;;0.90;0.50;;;24.10;59.90;;;;;;4507632;31;20077;-69
2022/08/11 05:08:01;;;;;;;0.80;0.45;;;24.10;59.90;;;;;;4507934;31;20101;-69
2022/08/11 05:11:00;;;;;;;0.75;0.40;;;24.10;59.80;;;;;;4507280;31;20190;-70
2022/08/11 05:36:37;;;;;;;0.93;0.60;;;24.00;59.70;;;;;;4458379;32;20104;-69
2022/08/11 05:58:44;;;;;;;0.40;0.40;;;24.10;59.80;;;;;;4510101;31;20061;-69
2022/08/11 06:01:12;;;;;;;0.52;0.50;;;24.10;59.80;;;;;;4509975;31;20166;-69
2022/08/11 06:06:28;;;;;;;1.95;1.08;;;24.10;59.80;;;;;;4510029;31;20190;-68
2022/08/11 06:08:57;;;;;;;2.00;1.30;;;24.10;60.00;;;;;;4509832;31;20097;-68
2022/08/11 06:11:24;;;;;;;3.63;1.58;;;24.20;60.10;;;;;;4509870;31;20080;-69
2022/08/11 06:13:51;;;;;;;3.20;1.92;;;24.20;60.10;;;;;;4509746;31;20093;-68
2022/08/11 06:16:27;;;;;;;4.15;2.00;;;24.20;60.20;;;;;;4509877;31;20139;-68
2022/08/11 06:18:53;;;;;;;3.22;1.80;;;24.20;60.20;;;;;;4509680;31;20124;-68
2022/08/11 06:21:20;;;;;;;3.40;2.00;;;24.20;60.40;;;;;;4509651;31;20219;-69
2022/08/11 06:23:47;;;;;;;6.63;2.38;;;24.20;60.50;;;;;;4509626;31;20088;-69
2022/08/11 06:26:14;;;;;;;3.28;2.00;;;24.20;60.60;;;;;;4509607;31;20091;-68
2022/08/11 06:28:44;;;;;;;3.15;1.85;;;24.30;60.70;;;;;;4509827;31;20517;-69
2022/08/11 06:31:14;;;;;;;4.07;2.40;;;24.30;60.80;;;;;;4509420;31;20076;-68
2022/08/11 06:34:00;;;;;;;4.00;1.92;;;24.30;61.00;;;;;;4509530;31;20395;-69
2022/08/11 06:36:47;;;;;;;6.43;2.38;;;24.30;61.20;;;;;;4509532;31;20068;-68
2022/08/11 06:39:27;;;;;;;5.00;2.85;;;24.30;61.30;;;;;;4509453;31;20514;-69
2022/08/11 06:42:06;;;;;;;6.07;2.20;;;24.40;61.40;;;;;;4509566;31;20072;-68
2022/08/11 06:44:40;;;;;;;6.47;2.80;;;24.40;61.30;;;;;;4494893;31;20061;-69
2022/08/11 06:47:11;;;;;;;3.75;2.40;;;24.40;61.30;;;;;;4509449;31;20068;-69
2022/08/11 06:52:33;;;;;;;6.05;2.30;;;24.50;61.20;;;;;;4508867;31;20548;-68
2022/08/11 07:00:26;;;;;;;2.90;2.03;;;24.50;61.10;;;;;;4509307;31;20073;-69
2022/08/11 07:01:10;;;;;;;5.35;2.08;;;24.50;61.10;;;;;;4508988;31;20592;-68
2022/08/11 07:03:58;;;;;;;4.80;2.15;;;24.60;61.30;;;;;;4508998;31;20060;-68
2022/08/11 07:15:40;;;;;;;4.22;1.85;;;24.60;61.30;;;;;;4494520;31;20162;-68
2022/08/11 07:15:42;;;;;;;4.38;1.70;;;24.60;61.30;;;;;;4509134;31;20165;-68
2022/08/11 07:30:05;;;;;;;1.90;1.45;;;24.70;61.50;;;;;;4508979;31;20072;-68
2022/08/11 07:32:36;;;;;;;7.00;1.60;;;24.70;61.40;;;;;;4508827;31;20065;-68
2022/08/11 07:35:14;;;;;;;5.35;1.73;;;24.80;61.40;;;;;;4508233;31;20084;-69
2022/08/11 07:37:44;;;;;;;3.53;1.50;;;24.70;61.40;;;;;;4508720;31;20076;-69
2022/08/11 07:40:10;;;;;;;6.75;1.63;;;24.80;61.50;;;;;;4508128;31;20076;-68
2022/08/11 07:42:37;;;;;;;2.20;1.55;;;24.80;61.50;;;;;;4508337;31;20081;-68
2022/08/11 07:53:27;;;;;;;5.20;1.65;;;24.80;61.30;;;;;;4508246;31;20154;-68
2022/08/11 07:55:55;;;;;;;4.75;1.73;;;24.90;61.20;;;;;;4508145;31;20076;-68
2022/08/11 08:17:56;;;;;;;2.85;1.90;;;25.00;60.80;;;;;;4508300;31;20075;-67
2022/08/11 08:20:29;;;;;;;3.22;1.70;;;25.00;60.70;;;;;;4508091;31;20085;-68
2022/08/11 08:22:58;;;;;;;5.05;1.70;;;25.00;60.70;;;;;;4507906;31;20442;-67
2022/08/11 08:25:30;;;;;;;5.40;1.88;;;25.00;60.60;;;;;;4507886;31;20166;-67
2022/08/11 08:27:58;;;;;;;4.10;1.83;;;25.00;60.70;;;;;;4507853;31;20134;-67
2022/08/11 08:33:16;;;;;;;4.00;1.67;;;25.00;60.70;;;;;;4508156;31;20104;-67
2022/08/11 08:35:44;;;;;;;5.70;2.00;;;25.00;60.60;;;;;;4508027;31;20494;-67
2022/08/11 08:38:11;;;;;;;5.20;2.13;;;25.00;60.50;;;;;;4507789;31;20076;-67
2022/08/11 08:40:39;;;;;;;3.53;1.50;;;25.10;60.50;;;;;;4507695;31;20081;-67
2022/08/11 08:43:09;;;;;;;4.22;1.92;;;25.10;60.40;;;;;;4507354;31;20080;-70
2022/08/11 08:45:36;;;;;;;3.10;1.90;;;25.10;60.30;;;;;;4507387;31;20610;-67
2022/08/11 08:48:07;;;;;;;4.75;1.83;;;25.10;60.00;;;;;;4507235;31;20112;-68
2022/08/11 08:53:28;;;;;;;4.95;2.00;;;25.10;59.70;;;;;;4507645;31;20116;-69
2022/08/11 08:55:57;;;;;;;6.53;1.52;;;25.20;59.50;;;;;;4507393;31;20502;-69
2022/08/11 08:58:23;;;;;;;2.45;1.60;;;25.10;59.40;;;;;;4507803;31;20154;-68
2022/08/11 09:00:53;;;;;;;2.72;1.55;;;25.20;59.30;;;;;;4507593;31;20515;-68
2022/08/11 09:03:23;;;;;;;3.55;1.48;;;25.20;59.20;;;;;;4507546;31;20095;-69
2022/08/11 09:05:54;;;;;;;2.92;1.50;;;25.20;59.20;;;;;;4507658;31;20506;-68
2022/08/11 09:08:22;;;;;;;3.60;1.40;;;25.20;59.00;;;;;;4507946;31;20153;-68
2022/08/11 09:13:35;;;;;;;5.32;1.85;;;25.20;58.80;;;;;;4482168;31;20261;-68
2022/08/11 09:16:05;;;;;;;4.43;1.65;;;25.20;58.80;;;;;;4510633;31;20152;-73
2022/08/11 09:18:32;;;;;;;4.13;1.60;;;25.20;58.30;;;;;;4510568;31;20069;-69
2022/08/11 09:21:01;;;;;;;2.45;1.38;;;25.30;58.30;;;;;;4510558;31;20080;-69
2022/08/11 09:28:59;;;;;;;2.97;1.30;;;25.20;58.00;;;;;;4510669;31;20084;-69
2022/08/11 09:31:25;;;;;;;6.75;1.60;;;25.20;57.40;;;;;;4510264;31;20123;-69
2022/08/11 09:33:54;;;;;;;2.03;1.50;;;25.20;57.20;;;;;;4510365;31;20169;-72
2022/08/11 09:41:51;;;;;;;2.38;1.48;;;25.30;57.20;;;;;;4510498;31;20490;-73
2022/08/11 09:47:04;;;;;;;5.65;1.50;;;25.30;56.90;;;;;;4510253;31;20069;-72
2022/08/11 09:49:31;;;;;;;1.42;1.10;;;25.30;56.30;;;;;;4509531;31;20065;-72
2022/08/11 09:51:59;;;;;;;3.58;1.40;;;25.30;55.60;;;;;;4509759;31;20431;-73
2022/08/11 09:54:26;;;;;;;6.30;1.55;;;25.30;55.10;;;;;;4495746;31;20099;-72
2022/08/11 09:59:38;;;;;;;1.85;1.20;;;25.30;54.80;;;;;;4508616;31;20406;-73
2022/08/11 10:02:06;;;;;;;3.30;1.02;;;25.30;54.10;;;;;;4509797;31;20162;-67
2022/08/11 10:04:44;;;;;;;5.43;1.45;;;25.30;53.60;;;;;;4510121;31;20092;-67
2022/08/11 10:07:15;;;;;;;7.93;1.33;;;25.30;53.90;;;;;;4509855;31;20092;-67
2022/08/11 10:09:55;;;;;;;3.38;1.15;;;25.40;54.30;;;;;;4510078;31;20076;-72
2022/08/11 10:12:28;;;;;;;3.65;1.20;;;25.30;54.40;;;;;;4509663;31;20076;-66
2022/08/11 10:20:43;;;;;;;2.03;1.20;;;25.30;55.10;;;;;;4509672;31;20075;-67
2022/08/11 10:28:42;;;;;;;1.95;1.30;;;25.30;55.40;;;;;;4509805;31;20057;-67
2022/08/11 10:33:59;;;;;;;2.03;1.00;;;25.30;55.40;;;;;;4509778;31;20105;-68
2022/08/11 10:36:32;;;;;;;2.03;1.30;;;25.30;55.50;;;;;;4509161;31;20137;-67
2022/08/11 10:39:01;;;;;;;2.30;1.25;;;25.30;55.50;;;;;;4509268;31;20134;-70
2022/08/11 10:44:14;;;;;;;2.63;1.30;;;25.30;55.60;;;;;;4509327;31;20458;-66
2022/08/11 10:49:26;;;;;;;2.20;1.15;;;25.30;55.60;;;;;;4509053;31;20087;-68
2022/08/11 11:00:16;;;;;;;2.42;1.08;;;25.30;55.40;;;;;;4509077;31;20520;-67
2022/08/11 11:02:43;;;;;;;3.30;1.20;;;25.30;55.40;;;;;;4508690;31;20065;-67
2022/08/11 11:05:25;;;;;;;2.17;1.00;;;25.30;55.40;;;;;;4509005;31;20064;-70
2022/08/11 11:08:51;;;;;;;1.55;1.20;;;25.30;55.30;;;;;;4494447;31;20206;-66
2022/08/11 11:10:48;;;;;;;2.63;0.93;;;25.30;55.30;;;;;;4508727;31;20084;-66
2022/08/11 11:18:44;;;;;;;4.90;1.10;;;25.30;55.20;;;;;;4508990;31;20116;-67
2022/08/11 11:21:19;;;;;;;4.00;1.10;;;25.30;55.10;;;;;;4508735;31;20081;-67
2022/08/11 11:23:59;;;;;;;2.85;1.20;;;25.30;55.00;;;;;;4508763;31;20088;-67
2022/08/11 11:26:49;;;;;;;1.95;1.13;;;25.30;55.00;;;;;;4509039;31;20124;-67
2022/08/11 11:29:32;;;;;;;5.70;1.20;;;25.30;55.00;;;;;;4508582;31;20080;-67
2022/08/11 11:32:08;;;;;;;3.58;1.27;;;25.30;54.90;;;;;;4508524;31;20170;-68
2022/08/11 11:35:08;;;;;;;1.50;1.00;;;25.30;54.70;;;;;;4508605;31;20207;-67
2022/08/11 11:37:35;;;;;;;2.10;1.10;;;25.30;54.70;;;;;;4507979;31;20091;-67
2022/08/11 11:40:09;;;;;;;0.93;0.80;;;25.30;54.70;;;;;;4508766;31;20544;-68
2022/08/11 11:42:36;;;;;;;1.67;0.93;;;25.30;54.70;;;;;;4508437;31;20069;-68
2022/08/11 11:45:04;;;;;;;1.95;1.15;;;25.30;54.60;;;;;;4508408;31;20609;-67
2022/08/11 11:47:31;;;;;;;2.38;1.00;;;25.30;54.50;;;;;;4508655;31;20157;-67
2022/08/11 11:49:58;;;;;;;1.10;1.00;;;25.20;54.30;;;;;;4507311;31;20084;-67
2022/08/11 11:52:25;;;;;;;4.60;0.90;;;25.30;54.30;;;;;;4507963;31;20526;-67
2022/08/11 11:54:56;;;;;;;3.47;0.98;;;25.30;54.20;;;;;;4508248;31;20099;-67
2022/08/11 12:02:57;;;;;;;1.90;1.00;;;25.30;53.80;;;;;;4508467;31;20372;-67
2022/08/11 12:05:24;;;;;;;2.22;0.90;;;25.30;53.70;;;;;;4492472;31;20109;-68
2022/08/11 12:08:14;;;;;;;2.30;1.20;;;25.30;53.70;;;;;;4492911;31;20087;-67
2022/08/11 12:10:43;;;;;;;1.02;0.70;;;25.30;53.50;;;;;;4507761;31;20086;-69
2022/08/11 12:15:54;;;;;;;3.30;0.90;;;25.30;53.50;;;;;;4507670;31;20084;-66
2022/08/11 12:18:20;;;;;;;3.13;1.08;;;25.30;53.40;;;;;;4507665;31;20073;-66
2022/08/11 12:20:47;;;;;;;1.73;1.10;;;25.30;53.30;;;;;;4507499;31;20084;-66
2022/08/11 12:28:45;;;;;;;1.83;1.00;;;25.30;53.40;;;;;;4495750;31;20159;-67
2022/08/11 12:31:11;;;;;;;8.25;1.10;;;25.30;53.40;;;;;;4507086;31;20521;-67
2022/08/11 12:33:39;;;;;;;2.35;1.10;;;25.30;53.40;;;;;;4507276;31;20162;-68
2022/08/11 12:36:08;;;;;;;3.88;1.00;;;25.30;53.40;;;;;;4507067;31;20093;-67
2022/08/11 12:38:35;;;;;;;1.95;1.10;;;25.30;53.50;;;;;;4507494;31;20288;-67
2022/08/11 12:46:34;;;;;;;2.03;0.98;;;25.40;53.80;;;;;;4507463;31;20088;-67
2022/08/11 12:52:03;;;;;;;1.83;1.00;;;25.40;53.90;;;;;;4510823;31;20069;-67
2022/08/11 12:54:45;;;;;;;1.30;1.10;;;25.40;54.00;;;;;;4510964;31;20157;-67
2022/08/11 13:05:54;;;;;;;2.17;1.20;;;25.40;54.20;;;;;;4510575;31;20069;-67
2022/08/11 13:08:23;;;;;;;1.83;1.27;;;25.40;54.20;;;;;;4510653;31;20254;-67
2022/08/11 13:13:37;;;;;;;5.30;1.13;;;25.50;54.30;;;;;;4510577;31;20093;-68
2022/08/11 13:16:04;;;;;;;1.83;1.02;;;25.40;54.30;;;;;;4510675;31;20081;-67
2022/08/11 13:18:30;;;;;;;2.10;1.10;;;25.50;54.40;;;;;;4510260;31;20422;-67
2022/08/11 13:20:57;;;;;;;1.65;0.88;;;25.50;54.40;;;;;;4509963;31;20509;-67
2022/08/11 13:23:24;;;;;;;1.65;0.90;;;25.50;54.40;;;;;;4510364;31;20096;-67
2022/08/11 13:25:53;;;;;;;2.83;1.10;;;25.50;54.40;;;;;;4509967;31;20069;-67
2022/08/11 13:28:20;;;;;;;2.85;1.20;;;25.60;54.50;;;;;;4510244;31;20213;-67
2022/08/11 13:33:42;;;;;;;1.98;0.88;;;25.60;54.60;;;;;;4510426;31;20410;-66
2022/08/11 13:36:08;;;;;;;1.63;1.10;;;25.60;54.60;;;;;;4510256;31;20073;-67
2022/08/11 13:38:36;;;;;;;2.53;1.23;;;25.60;54.60;;;;;;4510068;31;20100;-66
2022/08/11 13:41:36;;;;;;;3.15;1.13;;;25.70;54.70;;;;;;4509969;31;20088;-66
2022/08/11 13:43:51;;;;;;;4.57;1.40;;;25.70;54.70;;;;;;4509573;31;20076;-67
2022/08/11 13:46:19;;;;;;;2.83;1.23;;;25.70;54.70;;;;;;4509579;31;20076;-67
2022/08/11 13:48:46;;;;;;;3.13;1.10;;;25.70;54.70;;;;;;4509475;31;20185;-67
2022/08/11 13:51:32;;;;;;;1.98;1.42;;;25.80;54.70;;;;;;4509779;31;20095;-67
2022/08/11 13:54:08;;;;;;;1.90;0.90;;;25.80;54.70;;;;;;4509941;31;20095;-65
2022/08/11 13:56:41;;;;;;;1.92;0.98;;;25.80;54.70;;;;;;4509990;31;20108;-64
2022/08/11 13:59:08;;;;;;;3.83;1.20;;;25.80;54.60;;;;;;4509685;31;20095;-65
2022/08/11 14:01:41;;;;;;;5.93;1.40;;;25.90;54.70;;;;;;4508664;31;20220;-64
2022/08/11 14:04:13;;;;;;;3.20;1.42;;;25.90;54.70;;;;;;4509581;31;20083;-64
2022/08/11 14:06:49;;;;;;;2.20;1.20;;;25.90;54.60;;;;;;4509597;31;20165;-64
2022/08/11 14:09:21;;;;;;;1.60;1.00;;;25.90;54.60;;;;;;4509578;31;20073;-65
2022/08/11 14:14:34;;;;;;;1.70;0.93;;;25.90;54.60;;;;;;4509422;31;20257;-65
2022/08/11 14:17:07;;;;;;;2.22;1.20;;;25.90;54.50;;;;;;4509146;31;20089;-65
2022/08/11 14:19:41;;;;;;;2.53;1.08;;;26.00;54.70;;;;;;4509839;31;20112;-65
2022/08/11 14:22:07;;;;;;;3.92;1.20;;;26.00;54.60;;;;;;4509768;31;20091;-65
2022/08/11 14:24:39;;;;;;;3.22;1.17;;;26.00;54.00;;;;;;4509338;31;20077;-64
2022/08/11 14:27:07;;;;;;;3.55;1.30;;;26.00;53.30;;;;;;4509336;31;20490;-64
2022/08/11 14:29:37;;;;;;;2.83;1.15;;;26.10;53.00;;;;;;4509529;31;20120;-64
2022/08/11 14:32:14;;;;;;;2.97;1.15;;;26.10;52.70;;;;;;4509936;31;20128;-64
2022/08/11 14:34:42;;;;;;;5.03;1.20;;;26.20;52.70;;;;;;4509840;31;20077;-66
2022/08/11 14:37:14;;;;;;;8.45;1.40;;;26.20;52.20;;;;;;4494856;31;20136;-65
2022/08/11 14:39:53;;;;;;;3.63;1.40;;;26.20;51.90;;;;;;4509486;31;20095;-65
2022/08/11 14:47:53;;;;;;;2.47;1.25;;;26.20;50.70;;;;;;4509488;31;20223;-65
2022/08/11 14:50:25;;;;;;;3.17;1.30;;;26.30;50.30;;;;;;4509077;31;20084;-65
2022/08/11 14:53:00;;;;;;;2.15;0.90;;;26.30;50.00;;;;;;4509023;31;20080;-65
2022/08/11 14:58:16;;;;;;;3.92;1.20;;;26.40;49.80;;;;;;4509438;31;20383;-65
2022/08/11 15:00:43;;;;;;;4.68;1.10;;;26.40;49.60;;;;;;4509192;31;20083;-64
2022/08/11 15:03:13;;;;;;;1.88;1.35;;;26.40;49.50;;;;;;4509080;31;20280;-65
2022/08/11 15:05:49;;;;;;;1.48;0.93;;;26.40;49.50;;;;;;4494484;31;20095;-65
2022/08/11 15:08:17;;;;;;;2.35;1.00;;;26.40;49.50;;;;;;4508806;31;20083;-65
2022/08/11 15:10:44;;;;;;;2.60;1.10;;;26.50;49.60;;;;;;4509053;31;20091;-65
2022/08/11 15:13:11;;;;;;;2.38;0.90;;;26.50;49.50;;;;;;4508050;31;20065;-64
2022/08/11 15:18:25;;;;;;;2.90;1.05;;;26.50;49.50;;;;;;4509145;31;20646;-65
2022/08/11 15:37:42;;;;;;;3.05;1.52;;;26.50;48.70;;;;;;4508902;31;20080;-65
2022/08/11 15:46:01;;;;;;;9.57;1.63;;;26.50;48.90;;;;;;4508414;31;20076;-65
2022/08/11 15:48:32;;;;;;;2.30;1.20;;;26.50;49.00;;;;;;4508401;31;20080;-65
2022/08/11 15:51:11;;;;;;;2.25;1.10;;;26.60;49.10;;;;;;4508323;31;20087;-65
2022/08/11 15:53:44;;;;;;;2.25;1.27;;;26.50;49.10;;;;;;4508343;31;20061;-65
2022/08/11 15:56:11;;;;;;;1.85;1.10;;;26.60;49.20;;;;;;4508307;31;20216;-65
2022/08/11 16:04:24;;;;;;;1.73;1.20;;;26.50;48.80;;;;;;4508558;31;20068;-65
2022/08/11 16:07:00;;;;;;;4.07;1.08;;;26.50;48.60;;;;;;4508080;31;20206;-65
2022/08/11 16:09:34;;;;;;;1.20;1.00;;;26.50;48.30;;;;;;4508053;31;20203;-65
2022/08/11 16:12:04;;;;;;;3.15;1.48;;;26.50;48.40;;;;;;4508208;31;20525;-65
2022/08/11 16:17:22;;;;;;;3.60;1.50;;;26.40;48.50;;;;;;4508080;31;20522;-65
2022/08/11 16:19:52;;;;;;;4.85;1.20;;;26.40;48.50;;;;;;4507612;31;20223;-65
2022/08/11 16:22:42;;;;;;;4.38;1.40;;;26.40;48.60;;;;;;4507900;31;20506;-65
2022/08/11 16:25:11;;;;;;;2.72;1.00;;;26.40;48.60;;;;;;4508199;31;20073;-65
2022/08/11 16:27:44;;;;;;;3.28;1.67;;;26.40;48.70;;;;;;4507848;31;20073;-65
2022/08/11 16:30:10;;;;;;;3.03;1.52;;;26.40;48.80;;;;;;4507852;31;20502;-65
2022/08/11 16:32:39;;;;;;;3.80;1.17;;;26.30;48.80;;;;;;4507667;31;20081;-65
2022/08/11 16:40:43;;;;;;;2.63;1.40;;;26.30;48.90;;;;;;4508036;31;20083;-65
2022/08/11 16:48:48;;;;;;;2.47;1.15;;;26.20;49.40;;;;;;4507677;31;20227;-67
2022/08/11 16:51:14;;;;;;;2.60;1.33;;;26.20;49.50;;;;;;4507724;31;20118;-65
2022/08/11 16:53:43;;;;;;;2.58;1.13;;;26.20;49.60;;;;;;4507607;31;20084;-65
2022/08/11 16:56:15;;;;;;;6.70;1.40;;;26.20;49.70;;;;;;4507454;31;20230;-65
2022/08/11 17:01:27;;;;;;;2.85;1.20;;;26.20;49.90;;;;;;4495371;31;20085;-65
2022/08/11 17:18:05;;;;;;;6.82;1.60;;;26.20;50.70;;;;;;4507480;31;20076;-66
2022/08/11 17:20:32;;;;;;;2.22;1.35;;;26.20;50.80;;;;;;4507358;31;20083;-65
2022/08/11 17:25:50;;;;;;;2.13;1.17;;;26.20;51.00;;;;;;4507445;31;20094;-65
2022/08/11 17:28:18;;;;;;;1.98;1.17;;;26.20;51.10;;;;;;4507445;31;20224;-65
2022/08/11 17:36:18;;;;;;;2.88;1.15;;;26.10;51.30;;;;;;4509830;31;20513;-66
2022/08/11 17:38:47;;;;;;;2.65;1.40;;;26.10;51.30;;;;;;4510367;31;20143;-65
2022/08/11 17:49:36;;;;;;;4.13;1.50;;;26.10;51.60;;;;;;4510104;31;20084;-65
2022/08/11 18:00:24;;;;;;;5.40;2.17;;;26.10;51.90;;;;;;4510327;31;20226;-65
2022/08/11 18:05:42;;;;;;;3.85;2.22;;;26.10;52.00;;;;;;4510193;31;20092;-66
